Terminal Aerodrome Forecast
Issued by NWS Rapid City, SD

Home | Current Version | Previous Version | Text Only | Print | Product List | Glossary On
Versions: 1 2 3 4 5 6 7 8 9 10 11 12 13 14 15 16 17 18 19 20 21 22 23 24 25 26 27 28 29
000
FTUS43 KUNR 310520
TAFRAP
TAF
KRAP 310520Z 3106/0106 10006KT P6SM VCTS BKN080CB OVC150
      TEMPO 3106/3107 VRB20G35KT 2SM TSRA BKN050CB
     FM310800 16006KT P6SM BKN150
     FM311700 17016KT P6SM SCT250=

USA.gov is the U.S. government's official web portal to all federal, state and local government web resources and services.